sensor_id;sensor_type;location;lat;lon;timestamp;temperature;humidity
8408;DHT22;4241;48.452;9.216;2023-08-12T00:01:35;21.20;99.90
8408;DHT22;4241;48.452;9.216;2023-08-12T00:04:02;21.10;99.90
8408;DHT22;4241;48.452;9.216;2023-08-12T00:06:29;21.10;99.90
8408;DHT22;4241;48.452;9.216;2023-08-12T00:08:56;21.00;99.90
8408;DHT22;4241;48.452;9.216;2023-08-12T00:11:23;21.00;99.90
8408;DHT22;4241;48.452;9.216;2023-08-12T00:13:49;21.00;99.90
8408;DHT22;4241;48.452;9.216;2023-08-12T00:16:16;20.80;99.90
8408;DHT22;4241;48.452;9.216;2023-08-12T00:18:45;20.90;99.90
8408;DHT22;4241;48.452;9.216;2023-08-12T00:21:11;20.90;99.90
8408;DHT22;4241;48.452;9.216;2023-08-12T00:23:40;20.80;99.90
8408;DHT22;4241;48.452;9.216;2023-08-12T00:26:07;20.80;99.90
8408;DHT22;4241;48.452;9.216;2023-08-12T00:28:34;20.80;99.90
8408;DHT22;4241;48.452;9.216;2023-08-12T00:31:01;20.80;99.90
8408;DHT22;4241;48.452;9.216;2023-08-12T00:33:28;20.80;99.90
8408;DHT22;4241;48.452;9.216;2023-08-12T00:35:56;20.80;99.90
8408;DHT22;4241;48.452;9.216;2023-08-12T00:38:23;20.70;99.90
8408;DHT22;4241;48.452;9.216;2023-08-12T00:40:49;20.70;99.90
8408;DHT22;4241;48.452;9.216;2023-08-12T00:43:15;20.70;99.90
8408;DHT22;4241;48.452;9.216;2023-08-12T00:45:42;20.70;99.90
8408;DHT22;4241;48.452;9.216;2023-08-12T00:48:09;20.70;99.90
8408;DHT22;4241;48.452;9.216;2023-08-12T00:50:37;20.70;99.90
8408;DHT22;4241;48.452;9.216;2023-08-12T00:53:07;20.70;99.90
8408;DHT22;4241;48.452;9.216;2023-08-12T00:55:34;20.70;99.90
8408;DHT22;4241;48.452;9.216;2023-08-12T00:58:02;20.60;99.90
8408;DHT22;4241;48.452;9.216;2023-08-12T01:00:29;20.50;99.90
8408;DHT22;4241;48.452;9.216;2023-08-12T01:02:56;20.50;99.90
8408;DHT22;4241;48.452;9.216;2023-08-12T01:05:23;20.60;99.90
8408;DHT22;4241;48.452;9.216;2023-08-12T01:07:50;20.40;99.90
8408;DHT22;4241;48.452;9.216;2023-08-12T01:10:21;20.50;99.90
8408;DHT22;4241;48.452;9.216;2023-08-12T01:12:54;20.50;99.90
8408;DHT22;4241;48.452;9.216;2023-08-12T01:15:24;20.50;99.90
8408;DHT22;4241;48.452;9.216;2023-08-12T01:17:54;20.50;99.90
8408;DHT22;4241;48.452;9.216;2023-08-12T01:20:22;20.40;99.90
8408;DHT22;4241;48.452;9.216;2023-08-12T01:22:55;20.50;99.90
8408;DHT22;4241;48.452;9.216;2023-08-12T01:25:24;20.40;99.90
8408;DHT22;4241;48.452;9.216;2023-08-12T01:27:51;20.50;99.90
8408;DHT22;4241;48.452;9.216;2023-08-12T01:30:18;20.40;99.90
8408;DHT22;4241;48.452;9.216;2023-08-12T01:32:53;20.40;99.90
8408;DHT22;4241;48.452;9.216;2023-08-12T01:35:25;20.40;99.90
8408;DHT22;4241;48.452;9.216;2023-08-12T01:37:54;20.30;99.90
8408;DHT22;4241;48.452;9.216;2023-08-12T01:40:26;20.30;99.90
8408;DHT22;4241;48.452;9.216;2023-08-12T01:42:54;20.30;99.90
8408;DHT22;4241;48.452;9.216;2023-08-12T01:45:22;20.30;99.90
8408;DHT22;4241;48.452;9.216;2023-08-12T01:47:49;20.30;99.90
8408;DHT22;4241;48.452;9.216;2023-08-12T01:50:16;20.30;99.90
8408;DHT22;4241;48.452;9.216;2023-08-12T01:52:44;20.30;99.90
8408;DHT22;4241;48.452;9.216;2023-08-12T01:55:11;20.30;99.90
8408;DHT22;4241;48.452;9.216;2023-08-12T01:57:39;20.30;99.90
8408;DHT22;4241;48.452;9.216;2023-08-12T02:00:07;20.20;99.90
8408;DHT22;4241;48.452;9.216;2023-08-12T02:02:34;20.20;99.90
8408;DHT22;4241;48.452;9.216;2023-08-12T02:05:01;20.10;99.90
8408;DHT22;4241;48.452;9.216;2023-08-12T02:09:55;20.30;99.90
8408;DHT22;4241;48.452;9.216;2023-08-12T02:12:21;20.30;99.90
8408;DHT22;4241;48.452;9.216;2023-08-12T02:14:49;20.10;99.90
8408;DHT22;4241;48.452;9.216;2023-08-12T02:17:16;20.10;99.90
8408;DHT22;4241;48.452;9.216;2023-08-12T02:19:43;20.00;99.90
8408;DHT22;4241;48.452;9.216;2023-08-12T02:22:10;20.00;99.90
8408;DHT22;4241;48.452;9.216;2023-08-12T02:24:37;20.00;99.90
8408;DHT22;4241;48.452;9.216;2023-08-12T02:27:04;20.10;99.90
8408;DHT22;4241;48.452;9.216;2023-08-12T02:29:30;20.10;99.90
8408;DHT22;4241;48.452;9.216;2023-08-12T02:31:59;20.00;99.90
8408;DHT22;4241;48.452;9.216;2023-08-12T02:34:26;20.00;99.90
8408;DHT22;4241;48.452;9.216;2023-08-12T02:36:53;19.90;99.90
8408;DHT22;4241;48.452;9.216;2023-08-12T02:39:20;19.90;99.90
8408;DHT22;4241;48.452;9.216;2023-08-12T02:41:47;20.00;99.90
8408;DHT22;4241;48.452;9.216;2023-08-12T02:44:14;20.00;99.90
8408;DHT22;4241;48.452;9.216;2023-08-12T02:46:40;20.00;99.90
8408;DHT22;4241;48.452;9.216;2023-08-12T02:49:09;20.00;99.90
8408;DHT22;4241;48.452;9.216;2023-08-12T02:51:35;20.00;99.90
8408;DHT22;4241;48.452;9.216;2023-08-12T02:54:02;20.00;99.90
8408;DHT22;4241;48.452;9.216;2023-08-12T02:56:29;20.10;99.90
8408;DHT22;4241;48.452;9.216;2023-08-12T03:01:23;20.10;99.90
8408;DHT22;4241;48.452;9.216;2023-08-12T03:03:51;19.90;99.90
8408;DHT22;4241;48.452;9.216;2023-08-12T03:06:19;20.00;99.90
8408;DHT22;4241;48.452;9.216;2023-08-12T03:08:45;19.90;99.90
8408;DHT22;4241;48.452;9.216;2023-08-12T03:11:12;20.00;99.90
8408;DHT22;4241;48.452;9.216;2023-08-12T03:13:39;20.00;99.90
8408;DHT22;4241;48.452;9.216;2023-08-12T03:16:11;20.00;99.90
8408;DHT22;4241;48.452;9.216;2023-08-12T03:18:38;20.10;99.90
8408;DHT22;4241;48.452;9.216;2023-08-12T03:21:06;20.20;99.90
8408;DHT22;4241;48.452;9.216;2023-08-12T03:23:34;20.10;99.90
8408;DHT22;4241;48.452;9.216;2023-08-12T03:26:01;20.10;99.90
8408;DHT22;4241;48.452;9.216;2023-08-12T03:28:28;20.10;99.90
8408;DHT22;4241;48.452;9.216;2023-08-12T03:30:55;20.30;99.90
8408;DHT22;4241;48.452;9.216;2023-08-12T03:33:22;20.20;99.90
8408;DHT22;4241;48.452;9.216;2023-08-12T03:35:49;20.20;99.90
8408;DHT22;4241;48.452;9.216;2023-08-12T03:38:16;20.20;99.90
8408;DHT22;4241;48.452;9.216;2023-08-12T03:40:45;20.00;99.90
8408;DHT22;4241;48.452;9.216;2023-08-12T03:43:12;20.10;99.90
8408;DHT22;4241;48.452;9.216;2023-08-12T03:45:42;20.10;99.90
8408;DHT22;4241;48.452;9.216;2023-08-12T03:48:09;20.00;99.90
8408;DHT22;4241;48.452;9.216;2023-08-12T03:50:36;20.00;99.90
8408;DHT22;4241;48.452;9.216;2023-08-12T03:53:03;20.00;99.90
8408;DHT22;4241;48.452;9.216;2023-08-12T03:55:31;19.90;99.90
8408;DHT22;4241;48.452;9.216;2023-08-12T03:58:00;19.90;99.90
8408;DHT22;4241;48.452;9.216;2023-08-12T04:00:27;19.90;99.90
8408;DHT22;4241;48.452;9.216;2023-08-12T04:02:56;19.90;99.90
8408;DHT22;4241;48.452;9.216;2023-08-12T04:05:23;19.90;99.90
8408;DHT22;4241;48.452;9.216;2023-08-12T04:07:49;19.80;99.90
8408;DHT22;4241;48.452;9.216;2023-08-12T04:10:16;19.90;99.90
8408;DHT22;4241;48.452;9.216;2023-08-12T04:12:43;20.00;99.90
8408;DHT22;4241;48.452;9.216;2023-08-12T04:15:12;20.00;99.90
8408;DHT22;4241;48.452;9.216;2023-08-12T04:17:38;20.00;99.90
8408;DHT22;4241;48.452;9.216;2023-08-12T04:20:07;20.10;99.90
8408;DHT22;4241;48.452;9.216;2023-08-12T04:22:34;20.00;99.90
8408;DHT22;4241;48.452;9.216;2023-08-12T04:25:02;20.00;99.90
8408;DHT22;4241;48.452;9.216;2023-08-12T04:27:28;20.00;99.90
8408;DHT22;4241;48.452;9.216;2023-08-12T04:29:55;20.00;99.90
8408;DHT22;4241;48.452;9.216;2023-08-12T04:32:23;20.00;99.90
8408;DHT22;4241;48.452;9.216;2023-08-12T04:34:56;19.90;99.90
8408;DHT22;4241;48.452;9.216;2023-08-12T04:37:23;20.00;99.90
8408;DHT22;4241;48.452;9.216;2023-08-12T04:39:51;20.00;99.90
8408;DHT22;4241;48.452;9.216;2023-08-12T04:42:18;20.00;99.90
8408;DHT22;4241;48.452;9.216;2023-08-12T04:44:45;20.00;99.90
8408;DHT22;4241;48.452;9.216;2023-08-12T04:47:12;20.00;99.90
8408;DHT22;4241;48.452;9.216;2023-08-12T04:49:40;20.10;99.90
8408;DHT22;4241;48.452;9.216;2023-08-12T04:52:07;20.10;99.90
8408;DHT22;4241;48.452;9.216;2023-08-12T04:54:34;20.10;99.90
8408;DHT22;4241;48.452;9.216;2023-08-12T04:57:00;20.10;99.90
8408;DHT22;4241;48.452;9.216;2023-08-12T04:59:27;20.10;99.90
8408;DHT22;4241;48.452;9.216;2023-08-12T05:01:54;20.10;99.90
8408;DHT22;4241;48.452;9.216;2023-08-12T05:04:21;20.20;99.90
8408;DHT22;4241;48.452;9.216;2023-08-12T05:06:49;20.20;99.90
8408;DHT22;4241;48.452;9.216;2023-08-12T05:09:16;20.20;99.90
8408;DHT22;4241;48.452;9.216;2023-08-12T05:11:43;20.30;99.90
8408;DHT22;4241;48.452;9.216;2023-08-12T05:14:10;20.20;99.90
8408;DHT22;4241;48.452;9.216;2023-08-12T05:16:37;20.40;99.90
8408;DHT22;4241;48.452;9.216;2023-08-12T05:19:04;20.50;99.90
8408;DHT22;4241;48.452;9.216;2023-08-12T05:21:30;20.50;99.90
8408;DHT22;4241;48.452;9.216;2023-08-12T05:23:58;20.50;99.90
8408;DHT22;4241;48.452;9.216;2023-08-12T05:26:25;20.70;99.90
8408;DHT22;4241;48.452;9.216;2023-08-12T05:28:52;20.70;99.90
8408;DHT22;4241;48.452;9.216;2023-08-12T05:31:19;20.60;99.90
8408;DHT22;4241;48.452;9.216;2023-08-12T05:33:46;20.70;99.90
8408;DHT22;4241;48.452;9.216;2023-08-12T05:36:12;20.70;99.90
8408;DHT22;4241;48.452;9.216;2023-08-12T05:38:39;20.70;99.90
8408;DHT22;4241;48.452;9.216;2023-08-12T05:41:07;20.80;99.90
8408;DHT22;4241;48.452;9.216;2023-08-12T05:43:34;20.80;99.90
8408;DHT22;4241;48.452;9.216;2023-08-12T05:46:01;20.90;99.90
8408;DHT22;4241;48.452;9.216;2023-08-12T05:48:28;20.90;99.90
8408;DHT22;4241;48.452;9.216;2023-08-12T05:50:55;21.10;99.90
8408;DHT22;4241;48.452;9.216;2023-08-12T05:53:22;21.10;99.90
8408;DHT22;4241;48.452;9.216;2023-08-12T05:55:49;21.20;99.90
8408;DHT22;4241;48.452;9.216;2023-08-12T05:58:17;21.30;99.90
8408;DHT22;4241;48.452;9.216;2023-08-12T06:00:44;21.40;99.90
8408;DHT22;4241;48.452;9.216;2023-08-12T06:03:11;21.30;99.90
8408;DHT22;4241;48.452;9.216;2023-08-12T06:05:39;21.40;99.90
8408;DHT22;4241;48.452;9.216;2023-08-12T06:08:06;21.50;99.90
8408;DHT22;4241;48.452;9.216;2023-08-12T06:10:33;21.50;99.90
8408;DHT22;4241;48.452;9.216;2023-08-12T06:13:00;21.60;99.90
8408;DHT22;4241;48.452;9.216;2023-08-12T06:15:28;21.70;99.90
8408;DHT22;4241;48.452;9.216;2023-08-12T06:17:55;21.80;99.90
8408;DHT22;4241;48.452;9.216;2023-08-12T06:20:23;21.80;99.90
8408;DHT22;4241;48.452;9.216;2023-08-12T06:22:50;22.10;99.90
8408;DHT22;4241;48.452;9.216;2023-08-12T06:25:17;22.00;99.90
8408;DHT22;4241;48.452;9.216;2023-08-12T06:27:43;22.10;99.90
8408;DHT22;4241;48.452;9.216;2023-08-12T06:30:11;22.00;99.90
8408;DHT22;4241;48.452;9.216;2023-08-12T06:32:40;22.10;99.90
8408;DHT22;4241;48.452;9.216;2023-08-12T06:35:08;22.20;99.90
8408;DHT22;4241;48.452;9.216;2023-08-12T06:37:35;22.10;99.90
8408;DHT22;4241;48.452;9.216;2023-08-12T06:40:02;22.30;99.90
8408;DHT22;4241;48.452;9.216;2023-08-12T06:42:29;22.30;99.90
8408;DHT22;4241;48.452;9.216;2023-08-12T06:44:58;22.60;99.90
8408;DHT22;4241;48.452;9.216;2023-08-12T06:47:24;22.50;99.90
8408;DHT22;4241;48.452;9.216;2023-08-12T06:49:54;22.60;99.90
8408;DHT22;4241;48.452;9.216;2023-08-12T06:52:21;22.80;99.90
8408;DHT22;4241;48.452;9.216;2023-08-12T06:54:48;23.00;99.90
8408;DHT22;4241;48.452;9.216;2023-08-12T06:57:15;23.30;99.90
8408;DHT22;4241;48.452;9.216;2023-08-12T06:59:41;23.30;99.90
8408;DHT22;4241;48.452;9.216;2023-08-12T07:02:08;23.60;99.90
8408;DHT22;4241;48.452;9.216;2023-08-12T07:04:35;23.70;99.90
8408;DHT22;4241;48.452;9.216;2023-08-12T07:07:03;23.80;99.90
8408;DHT22;4241;48.452;9.216;2023-08-12T07:09:30;24.00;99.90
8408;DHT22;4241;48.452;9.216;2023-08-12T07:11:57;23.90;99.90
8408;DHT22;4241;48.452;9.216;2023-08-12T07:14:24;24.10;99.90
8408;DHT22;4241;48.452;9.216;2023-08-12T07:16:51;24.10;99.90
8408;DHT22;4241;48.452;9.216;2023-08-12T07:19:18;23.90;99.90
8408;DHT22;4241;48.452;9.216;2023-08-12T07:21:44;23.90;99.90
8408;DHT22;4241;48.452;9.216;2023-08-12T07:24:13;23.90;99.90
8408;DHT22;4241;48.452;9.216;2023-08-12T07:26:39;23.90;99.90
8408;DHT22;4241;48.452;9.216;2023-08-12T07:29:06;23.90;99.90
8408;DHT22;4241;48.452;9.216;2023-08-12T07:31:33;23.90;99.90
8408;DHT22;4241;48.452;9.216;2023-08-12T07:34:00;23.90;99.90
8408;DHT22;4241;48.452;9.216;2023-08-12T07:36:27;23.90;99.90
8408;DHT22;4241;48.452;9.216;2023-08-12T07:38:54;24.20;99.90
8408;DHT22;4241;48.452;9.216;2023-08-12T07:41:22;24.10;99.90
8408;DHT22;4241;48.452;9.216;2023-08-12T07:43:49;24.30;99.90
8408;DHT22;4241;48.452;9.216;2023-08-12T07:46:16;24.50;99.90
8408;DHT22;4241;48.452;9.216;2023-08-12T07:48:42;24.60;99.90
8408;DHT22;4241;48.452;9.216;2023-08-12T07:51:09;24.80;99.90
8408;DHT22;4241;48.452;9.216;2023-08-12T07:53:36;25.30;99.90
8408;DHT22;4241;48.452;9.216;2023-08-12T07:56:03;25.30;99.90
8408;DHT22;4241;48.452;9.216;2023-08-12T07:58:31;25.60;99.90
8408;DHT22;4241;48.452;9.216;2023-08-12T08:00:58;25.90;99.90
8408;DHT22;4241;48.452;9.216;2023-08-12T08:03:25;26.20;99.90
8408;DHT22;4241;48.452;9.216;2023-08-12T08:05:52;26.40;99.90
8408;DHT22;4241;48.452;9.216;2023-08-12T08:08:19;26.70;99.90
8408;DHT22;4241;48.452;9.216;2023-08-12T08:10:46;26.60;99.90
8408;DHT22;4241;48.452;9.216;2023-08-12T08:13:13;26.60;99.90
8408;DHT22;4241;48.452;9.216;2023-08-12T08:15:41;27.00;99.90
8408;DHT22;4241;48.452;9.216;2023-08-12T08:18:07;26.90;99.90
8408;DHT22;4241;48.452;9.216;2023-08-12T08:20:34;27.20;99.90
8408;DHT22;4241;48.452;9.216;2023-08-12T08:23:01;27.40;99.90
8408;DHT22;4241;48.452;9.216;2023-08-12T08:25:28;27.70;99.90
8408;DHT22;4241;48.452;9.216;2023-08-12T08:27:55;27.80;99.90
8408;DHT22;4241;48.452;9.216;2023-08-12T08:30:22;27.90;99.90
8408;DHT22;4241;48.452;9.216;2023-08-12T08:32:52;28.00;99.90
8408;DHT22;4241;48.452;9.216;2023-08-12T08:35:19;28.10;99.90
8408;DHT22;4241;48.452;9.216;2023-08-12T08:37:46;28.30;99.90
8408;DHT22;4241;48.452;9.216;2023-08-12T08:40:13;28.40;99.90
8408;DHT22;4241;48.452;9.216;2023-08-12T08:42:41;28.50;99.90
8408;DHT22;4241;48.452;9.216;2023-08-12T08:45:12;28.60;99.90
8408;DHT22;4241;48.452;9.216;2023-08-12T08:47:41;28.70;99.90
8408;DHT22;4241;48.452;9.216;2023-08-12T08:50:10;28.60;99.90
8408;DHT22;4241;48.452;9.216;2023-08-12T08:52:37;28.60;99.90
8408;DHT22;4241;48.452;9.216;2023-08-12T08:55:05;28.60;99.90
8408;DHT22;4241;48.452;9.216;2023-08-12T08:57:32;28.70;99.90
8408;DHT22;4241;48.452;9.216;2023-08-12T08:59:59;28.60;99.90
8408;DHT22;4241;48.452;9.216;2023-08-12T09:02:26;28.70;99.90
8408;DHT22;4241;48.452;9.216;2023-08-12T09:04:53;28.70;99.90
8408;DHT22;4241;48.452;9.216;2023-08-12T09:07:22;28.70;99.90
8408;DHT22;4241;48.452;9.216;2023-08-12T09:09:52;28.80;99.90
8408;DHT22;4241;48.452;9.216;2023-08-12T09:12:20;29.10;99.90
8408;DHT22;4241;48.452;9.216;2023-08-12T09:14:47;29.40;99.90
8408;DHT22;4241;48.452;9.216;2023-08-12T09:17:14;29.70;99.90
8408;DHT22;4241;48.452;9.216;2023-08-12T09:19:41;29.90;99.90
8408;DHT22;4241;48.452;9.216;2023-08-12T09:22:10;30.20;99.90
8408;DHT22;4241;48.452;9.216;2023-08-12T09:24:39;30.50;99.90
8408;DHT22;4241;48.452;9.216;2023-08-12T09:27:05;30.60;99.90
8408;DHT22;4241;48.452;9.216;2023-08-12T09:29:33;30.50;99.90
8408;DHT22;4241;48.452;9.216;2023-08-12T09:32:10;30.70;99.90
8408;DHT22;4241;48.452;9.216;2023-08-12T09:34:37;30.80;99.90
8408;DHT22;4241;48.452;9.216;2023-08-12T09:37:04;30.70;99.90
8408;DHT22;4241;48.452;9.216;2023-08-12T09:39:31;30.60;99.90
8408;DHT22;4241;48.452;9.216;2023-08-12T09:42:00;30.50;99.90
8408;DHT22;4241;48.452;9.216;2023-08-12T09:44:27;30.40;99.90
8408;DHT22;4241;48.452;9.216;2023-08-12T09:46:57;30.60;99.90
8408;DHT22;4241;48.452;9.216;2023-08-12T09:49:24;30.80;99.90
8408;DHT22;4241;48.452;9.216;2023-08-12T09:51:51;31.10;99.90
8408;DHT22;4241;48.452;9.216;2023-08-12T09:54:19;31.20;99.90
8408;DHT22;4241;48.452;9.216;2023-08-12T09:56:47;31.00;99.90
8408;DHT22;4241;48.452;9.216;2023-08-12T09:59:18;30.90;99.90
8408;DHT22;4241;48.452;9.216;2023-08-12T10:01:46;30.80;99.90
8408;DHT22;4241;48.452;9.216;2023-08-12T10:04:15;30.60;98.10
8408;DHT22;4241;48.452;9.216;2023-08-12T10:06:44;30.50;98.60
8408;DHT22;4241;48.452;9.216;2023-08-12T10:09:15;30.30;99.50
8408;DHT22;4241;48.452;9.216;2023-08-12T10:11:42;30.20;99.90
8408;DHT22;4241;48.452;9.216;2023-08-12T10:14:09;29.90;99.90
8408;DHT22;4241;48.452;9.216;2023-08-12T10:16:38;29.80;99.90
8408;DHT22;4241;48.452;9.216;2023-08-12T10:19:06;29.70;99.90
8408;DHT22;4241;48.452;9.216;2023-08-12T10:21:34;29.70;99.90
8408;DHT22;4241;48.452;9.216;2023-08-12T10:24:03;29.70;99.90
8408;DHT22;4241;48.452;9.216;2023-08-12T10:26:30;29.80;99.90
8408;DHT22;4241;48.452;9.216;2023-08-12T10:28:59;29.90;99.90
8408;DHT22;4241;48.452;9.216;2023-08-12T10:31:27;30.00;99.90
8408;DHT22;4241;48.452;9.216;2023-08-12T10:33:57;30.20;99.90
8408;DHT22;4241;48.452;9.216;2023-08-12T10:36:26;30.20;99.90
8408;DHT22;4241;48.452;9.216;2023-08-12T10:38:53;30.20;99.90
8408;DHT22;4241;48.452;9.216;2023-08-12T10:41:22;30.10;99.90
8408;DHT22;4241;48.452;9.216;2023-08-12T10:43:51;30.10;99.90
8408;DHT22;4241;48.452;9.216;2023-08-12T10:46:22;30.30;99.90
8408;DHT22;4241;48.452;9.216;2023-08-12T10:48:58;30.40;99.90
8408;DHT22;4241;48.452;9.216;2023-08-12T10:51:44;30.50;99.90
8408;DHT22;4241;48.452;9.216;2023-08-12T10:54:15;30.70;99.90
8408;DHT22;4241;48.452;9.216;2023-08-12T10:57:04;30.70;99.90
8408;DHT22;4241;48.452;9.216;2023-08-12T10:59:53;30.80;99.90
8408;DHT22;4241;48.452;9.216;2023-08-12T11:02:23;30.80;99.90
8408;DHT22;4241;48.452;9.216;2023-08-12T11:04:54;30.60;96.80
8408;DHT22;4241;48.452;9.216;2023-08-12T11:07:26;30.40;98.90
8408;DHT22;4241;48.452;9.216;2023-08-12T11:09:55;30.40;99.90
8408;DHT22;4241;48.452;9.216;2023-08-12T11:12:30;30.40;99.40
8408;DHT22;4241;48.452;9.216;2023-08-12T11:14:58;30.30;99.30
8408;DHT22;4241;48.452;9.216;2023-08-12T11:17:33;30.20;99.90
8408;DHT22;4241;48.452;9.216;2023-08-12T11:20:04;30.20;99.90
8408;DHT22;4241;48.452;9.216;2023-08-12T11:22:32;30.20;98.20
8408;DHT22;4241;48.452;9.216;2023-08-12T11:25:00;30.40;99.90
8408;DHT22;4241;48.452;9.216;2023-08-12T11:27:28;30.80;99.90
8408;DHT22;4241;48.452;9.216;2023-08-12T11:29:54;31.20;99.50
8408;DHT22;4241;48.452;9.216;2023-08-12T11:32:21;31.20;93.00
8408;DHT22;4241;48.452;9.216;2023-08-12T11:34:48;31.40;93.20
8408;DHT22;4241;48.452;9.216;2023-08-12T11:37:16;31.60;92.00
8408;DHT22;4241;48.452;9.216;2023-08-12T11:39:43;31.80;88.60
8408;DHT22;4241;48.452;9.216;2023-08-12T11:42:10;32.00;88.90
8408;DHT22;4241;48.452;9.216;2023-08-12T11:44:39;32.10;84.90
8408;DHT22;4241;48.452;9.216;2023-08-12T11:47:06;32.20;86.10
8408;DHT22;4241;48.452;9.216;2023-08-12T11:49:33;32.40;81.20
8408;DHT22;4241;48.452;9.216;2023-08-12T11:52:00;32.40;80.50
8408;DHT22;4241;48.452;9.216;2023-08-12T11:54:28;32.40;81.80
8408;DHT22;4241;48.452;9.216;2023-08-12T11:56:55;32.50;78.70
8408;DHT22;4241;48.452;9.216;2023-08-12T11:59:22;32.50;83.10
8408;DHT22;4241;48.452;9.216;2023-08-12T12:01:49;32.50;81.00
8408;DHT22;4241;48.452;9.216;2023-08-12T12:04:16;32.20;79.40
8408;DHT22;4241;48.452;9.216;2023-08-12T12:06:46;31.80;79.80
8408;DHT22;4241;48.452;9.216;2023-08-12T12:09:13;31.60;85.50
8408;DHT22;4241;48.452;9.216;2023-08-12T12:11:41;31.50;84.30
8408;DHT22;4241;48.452;9.216;2023-08-12T12:14:09;31.40;88.80
8408;DHT22;4241;48.452;9.216;2023-08-12T12:16:41;31.40;90.50
8408;DHT22;4241;48.452;9.216;2023-08-12T12:19:15;31.20;91.00
8408;DHT22;4241;48.452;9.216;2023-08-12T12:21:45;31.20;93.90
8408;DHT22;4241;48.452;9.216;2023-08-12T12:24:12;31.30;92.80
8408;DHT22;4241;48.452;9.216;2023-08-12T12:26:41;31.10;92.60
8408;DHT22;4241;48.452;9.216;2023-08-12T12:29:08;31.00;91.80
8408;DHT22;4241;48.452;9.216;2023-08-12T12:31:37;30.80;91.50
8408;DHT22;4241;48.452;9.216;2023-08-12T12:34:05;30.60;89.90
8408;DHT22;4241;48.452;9.216;2023-08-12T12:36:36;30.40;91.20
8408;DHT22;4241;48.452;9.216;2023-08-12T12:39:04;30.20;91.60
8408;DHT22;4241;48.452;9.216;2023-08-12T12:41:31;29.90;90.80
8408;DHT22;4241;48.452;9.216;2023-08-12T12:43:59;29.70;91.10
8408;DHT22;4241;48.452;9.216;2023-08-12T12:46:26;29.30;93.60
8408;DHT22;4241;48.452;9.216;2023-08-12T12:48:53;28.60;99.90
8408;DHT22;4241;48.452;9.216;2023-08-12T12:51:20;27.50;99.90
8408;DHT22;4241;48.452;9.216;2023-08-12T12:53:47;26.60;99.90
8408;DHT22;4241;48.452;9.216;2023-08-12T12:56:13;25.90;99.90
8408;DHT22;4241;48.452;9.216;2023-08-12T12:58:40;25.40;99.90
8408;DHT22;4241;48.452;9.216;2023-08-12T13:01:08;25.40;99.90
8408;DHT22;4241;48.452;9.216;2023-08-12T13:03:35;25.20;99.90
8408;DHT22;4241;48.452;9.216;2023-08-12T13:06:02;25.00;99.90
8408;DHT22;4241;48.452;9.216;2023-08-12T13:08:29;24.90;99.90
8408;DHT22;4241;48.452;9.216;2023-08-12T13:10:57;24.70;99.90
8408;DHT22;4241;48.452;9.216;2023-08-12T13:13:24;24.50;99.90
8408;DHT22;4241;48.452;9.216;2023-08-12T13:15:51;24.30;99.90
8408;DHT22;4241;48.452;9.216;2023-08-12T13:18:20;24.20;99.90
8408;DHT22;4241;48.452;9.216;2023-08-12T13:20:46;24.10;99.90
8408;DHT22;4241;48.452;9.216;2023-08-12T13:23:14;24.10;99.90
8408;DHT22;4241;48.452;9.216;2023-08-12T13:25:41;24.10;99.90
8408;DHT22;4241;48.452;9.216;2023-08-12T13:28:08;24.00;99.90
8408;DHT22;4241;48.452;9.216;2023-08-12T13:30:35;23.70;99.90
8408;DHT22;4241;48.452;9.216;2023-08-12T13:33:03;23.60;99.90
8408;DHT22;4241;48.452;9.216;2023-08-12T13:35:31;23.80;99.90
8408;DHT22;4241;48.452;9.216;2023-08-12T13:37:58;23.80;99.90
8408;DHT22;4241;48.452;9.216;2023-08-12T13:40:25;23.90;99.90
8408;DHT22;4241;48.452;9.216;2023-08-12T13:42:52;23.90;99.90
8408;DHT22;4241;48.452;9.216;2023-08-12T13:45:19;24.10;99.90
8408;DHT22;4241;48.452;9.216;2023-08-12T13:47:46;24.20;99.90
8408;DHT22;4241;48.452;9.216;2023-08-12T13:50:12;24.10;99.90
8408;DHT22;4241;48.452;9.216;2023-08-12T13:52:45;24.20;99.90
8408;DHT22;4241;48.452;9.216;2023-08-12T13:55:12;24.40;99.90
8408;DHT22;4241;48.452;9.216;2023-08-12T13:57:39;24.50;99.90
8408;DHT22;4241;48.452;9.216;2023-08-12T14:00:06;24.60;99.90
8408;DHT22;4241;48.452;9.216;2023-08-12T14:02:35;25.00;99.90
8408;DHT22;4241;48.452;9.216;2023-08-12T14:05:03;25.00;99.90
8408;DHT22;4241;48.452;9.216;2023-08-12T14:09:58;25.40;99.90
8408;DHT22;4241;48.452;9.216;2023-08-12T14:14:52;25.50;99.90
8408;DHT22;4241;48.452;9.216;2023-08-12T14:17:19;25.60;99.90
8408;DHT22;4241;48.452;9.216;2023-08-12T14:22:16;25.80;99.90
8408;DHT22;4241;48.452;9.216;2023-08-12T14:24:43;25.90;99.90
8408;DHT22;4241;48.452;9.216;2023-08-12T14:27:12;26.10;99.90
8408;DHT22;4241;48.452;9.216;2023-08-12T14:29:39;26.20;99.90
8408;DHT22;4241;48.452;9.216;2023-08-12T14:32:06;26.40;99.90
8408;DHT22;4241;48.452;9.216;2023-08-12T14:34:32;26.40;99.90
8408;DHT22;4241;48.452;9.216;2023-08-12T14:36:59;26.40;99.90
8408;DHT22;4241;48.452;9.216;2023-08-12T14:39:26;26.60;99.90
8408;DHT22;4241;48.452;9.216;2023-08-12T14:41:53;26.80;99.90
8408;DHT22;4241;48.452;9.216;2023-08-12T14:44:21;26.80;99.90
8408;DHT22;4241;48.452;9.216;2023-08-12T14:46:48;27.10;99.90
8408;DHT22;4241;48.452;9.216;2023-08-12T14:49:15;27.40;99.90
8408;DHT22;4241;48.452;9.216;2023-08-12T14:51:42;27.60;99.90
8408;DHT22;4241;48.452;9.216;2023-08-12T14:54:08;27.90;99.90
8408;DHT22;4241;48.452;9.216;2023-08-12T14:56:35;28.10;99.90
8408;DHT22;4241;48.452;9.216;2023-08-12T14:59:02;28.40;99.90
8408;DHT22;4241;48.452;9.216;2023-08-12T15:01:31;28.60;99.90
8408;DHT22;4241;48.452;9.216;2023-08-12T15:03:58;28.70;99.90
8408;DHT22;4241;48.452;9.216;2023-08-12T15:06:24;28.70;99.90
8408;DHT22;4241;48.452;9.216;2023-08-12T15:08:51;29.00;99.90
8408;DHT22;4241;48.452;9.216;2023-08-12T15:11:18;29.00;99.90
8408;DHT22;4241;48.452;9.216;2023-08-12T15:13:45;29.20;99.90
8408;DHT22;4241;48.452;9.216;2023-08-12T15:16:12;29.30;99.90
8408;DHT22;4241;48.452;9.216;2023-08-12T15:18:40;29.30;99.90
8408;DHT22;4241;48.452;9.216;2023-08-12T15:21:08;29.30;99.90
8408;DHT22;4241;48.452;9.216;2023-08-12T15:23:35;28.90;99.90
8408;DHT22;4241;48.452;9.216;2023-08-12T15:26:02;29.20;99.90
8408;DHT22;4241;48.452;9.216;2023-08-12T15:28:30;29.00;99.90
8408;DHT22;4241;48.452;9.216;2023-08-12T15:30:56;29.10;99.90
8408;DHT22;4241;48.452;9.216;2023-08-12T15:33:23;29.10;99.90
8408;DHT22;4241;48.452;9.216;2023-08-12T15:35:51;29.20;99.90
8408;DHT22;4241;48.452;9.216;2023-08-12T15:38:18;29.20;99.90
8408;DHT22;4241;48.452;9.216;2023-08-12T15:40:45;29.40;99.90
8408;DHT22;4241;48.452;9.216;2023-08-12T15:43:12;29.30;99.90
8408;DHT22;4241;48.452;9.216;2023-08-12T15:45:39;29.50;99.90
8408;DHT22;4241;48.452;9.216;2023-08-12T15:48:07;29.50;99.90
8408;DHT22;4241;48.452;9.216;2023-08-12T15:50:34;29.90;99.90
8408;DHT22;4241;48.452;9.216;2023-08-12T15:53:03;30.00;99.90
8408;DHT22;4241;48.452;9.216;2023-08-12T15:55:30;30.00;99.90
8408;DHT22;4241;48.452;9.216;2023-08-12T15:57:56;30.10;99.90
8408;DHT22;4241;48.452;9.216;2023-08-12T16:00:23;29.80;99.90
8408;DHT22;4241;48.452;9.216;2023-08-12T16:02:50;29.90;99.90
8408;DHT22;4241;48.452;9.216;2023-08-12T16:05:17;29.50;99.90
8408;DHT22;4241;48.452;9.216;2023-08-12T16:07:44;29.00;99.90
8408;DHT22;4241;48.452;9.216;2023-08-12T16:10:12;28.90;99.90
8408;DHT22;4241;48.452;9.216;2023-08-12T16:12:39;28.90;99.90
8408;DHT22;4241;48.452;9.216;2023-08-12T16:15:06;28.70;99.90
8408;DHT22;4241;48.452;9.216;2023-08-12T16:17:33;28.40;99.90